Time;durP1;ratioP1;P1;durP2;ratioP2;P2;SDS_P1;SDS_P2;PMS_P1;PMS_P2;Temp;Humidity;BMP_temperature;BMP_pressure;BME280_temperature;BME280_humidity;BME280_pressure;Samples;Min_cycle;Max_cycle;Signal;HPM_P1;HPM_P2
2022/04/08 00:00:30;;;;;;;4.03;1.50;;;8.50;99.90;;;9.21;91.43;-20040.47;5032764;28;20292;-60
2022/04/08 00:02:58;;;;;;;4.23;1.10;;;8.40;99.90;;;9.21;91.76;-20040.47;5032030;28;20657;-60
2022/04/08 00:05:27;;;;;;;3.67;1.43;;;8.50;99.90;;;9.23;91.43;-20040.97;5032018;28;20240;-59
2022/04/08 00:07:54;;;;;;;4.03;1.10;;;8.40;99.90;;;9.26;91.67;-20042.19;5031809;28;20241;-60
2022/04/08 00:10:22;;;;;;;3.40;1.17;;;8.40;99.90;;;9.18;91.24;-20039.44;5031681;28;20796;-60
2022/04/08 00:12:52;;;;;;;2.90;1.23;;;8.40;99.90;;;9.20;90.81;-20040.13;5032077;28;20218;-59
2022/04/08 00:15:20;;;;;;;3.43;1.13;;;8.40;99.90;;;9.16;92.06;-20038.75;5031928;28;20312;-61
2022/04/08 00:17:48;;;;;;;2.77;1.10;;;8.40;99.90;;;9.30;91.42;-20043.53;5031983;28;20236;-59
2022/04/08 00:20:16;;;;;;;3.33;1.23;;;8.40;99.90;;;9.22;89.45;-20040.63;5031360;28;20229;-60
2022/04/08 00:22:44;;;;;;;3.17;1.20;;;8.50;99.90;;;9.22;89.70;-20040.81;5031869;28;20304;-61
2022/04/08 00:25:12;;;;;;;2.53;1.20;;;8.40;99.90;;;9.33;89.42;-20044.56;5031577;28;20212;-60
2022/04/08 00:27:40;;;;;;;4.03;1.33;;;8.50;99.90;;;9.36;89.86;-20045.59;5032289;28;20306;-61
2022/04/08 00:30:11;;;;;;;4.10;1.63;;;8.50;99.90;;;9.33;89.93;-20044.56;5031713;28;20720;-61
2022/04/08 00:32:39;;;;;;;2.70;1.27;;;8.50;99.90;;;9.34;90.43;-20044.91;5031778;28;20244;-60
2022/04/08 00:35:08;;;;;;;2.73;1.20;;;8.50;99.90;;;9.19;89.99;-20039.78;5011426;28;20329;-59
2022/04/08 00:37:38;;;;;;;3.50;1.40;;;8.50;99.90;;;9.24;90.34;-20041.50;5011960;28;20301;-60
2022/04/08 00:40:10;;;;;;;1.97;1.27;;;8.50;99.90;;;9.27;90.75;-20042.53;5011949;28;20213;-61
2022/04/08 00:42:40;;;;;;;5.83;1.40;;;8.50;99.90;;;9.25;90.24;-20041.66;5012504;28;20183;-60
2022/04/08 00:45:10;;;;;;;3.07;1.30;;;8.40;99.90;;;9.16;91.27;-20038.75;5011822;28;20769;-57
2022/04/08 00:47:41;;;;;;;3.53;1.30;;;8.40;99.90;;;9.14;91.59;-20037.91;5011934;28;20230;-60
2022/04/08 00:50:11;;;;;;;3.93;1.40;;;8.40;99.90;;;9.13;91.44;-20037.56;5020033;28;20601;-60
2022/04/08 00:52:41;;;;;;;4.10;1.10;;;8.30;99.90;;;9.21;91.37;-20040.31;5031425;28;20226;-61
2022/04/08 00:55:12;;;;;;;2.30;1.10;;;8.40;99.90;;;9.17;91.35;-20038.94;5031779;28;20281;-61
2022/04/08 00:57:41;;;;;;;2.90;1.00;;;8.40;99.90;;;9.22;90.96;-20040.63;5031660;28;20226;-60
2022/04/08 01:00:12;;;;;;;2.30;0.80;;;8.30;99.90;;;9.12;92.95;-20037.22;5031093;28;20791;-61
2022/04/08 01:02:40;;;;;;;2.23;1.20;;;8.30;99.90;;;9.15;92.99;-20038.41;5031082;28;20521;-61
2022/04/08 01:05:09;;;;;;;3.00;1.30;;;8.30;99.90;;;9.18;92.42;-20039.28;5030913;28;20645;-60
2022/04/08 01:07:37;;;;;;;1.77;1.00;;;8.30;99.90;;;9.14;92.85;-20038.06;5031358;28;20230;-60
2022/04/08 01:10:07;;;;;;;3.97;1.30;;;8.30;99.90;;;8.99;93.59;-20032.78;5030814;28;20202;-60
2022/04/08 01:12:35;;;;;;;2.93;1.10;;;8.30;99.90;;;8.81;94.79;-20026.63;5031564;28;20524;-58
2022/04/08 01:15:03;;;;;;;6.57;1.37;;;8.20;99.90;;;8.70;95.71;-20023.03;5030928;28;20221;-61
2022/04/08 01:17:33;;;;;;;2.90;1.10;;;8.10;99.90;;;8.62;97.55;-20020.31;5030957;28;20253;-57
2022/04/08 01:20:01;;;;;;;2.00;1.17;;;7.90;99.90;;;8.52;97.98;-20017.06;5030613;28;20680;-60
2022/04/08 01:22:29;;;;;;;2.73;1.20;;;7.80;99.90;;;8.52;98.03;-20016.91;5031142;28;20233;-59
2022/04/08 01:25:02;;;;;;;4.83;2.07;;;7.80;99.90;;;8.29;99.62;-20009.22;5030857;28;20202;-61
2022/04/08 01:27:31;;;;;;;2.53;1.63;;;7.70;99.90;;;8.33;100.00;-20010.41;5031270;28;20186;-60
2022/04/08 01:30:00;;;;;;;2.97;1.20;;;7.60;99.90;;;8.35;100.00;-20011.25;5030715;28;20224;-61
2022/04/08 01:32:28;;;;;;;2.23;1.40;;;7.60;99.90;;;8.29;100.00;-20009.22;5030711;28;20317;-59
2022/04/08 01:34:56;;;;;;;3.73;1.40;;;7.60;99.90;;;8.16;100.00;-20004.75;5030545;28;20305;-58
2022/04/08 01:37:24;;;;;;;1.40;1.30;;;7.50;99.90;;;8.17;100.00;-20005.09;5030799;28;20233;-60
2022/04/08 01:39:52;;;;;;;1.43;1.20;;;7.50;99.90;;;8.20;100.00;-20005.97;5030868;28;20304;-60
2022/04/08 01:42:24;;;;;;;5.43;1.70;;;7.50;99.90;;;8.18;100.00;-20005.28;5030568;28;20301;-59
2022/04/08 01:44:54;;;;;;;2.33;1.60;;;7.50;99.90;;;8.20;100.00;-20005.97;5030814;28;20241;-60
2022/04/08 01:47:23;;;;;;;4.47;1.80;;;7.50;99.90;;;8.20;100.00;-20005.97;5029693;28;20237;-59
2022/04/08 01:49:51;;;;;;;3.63;1.77;;;7.50;99.90;;;8.23;100.00;-20007.16;5030074;28;20775;-57
2022/04/08 01:52:19;;;;;;;2.57;1.53;;;7.50;99.90;;;8.22;100.00;-20006.81;5030448;28;20253;-59
2022/04/08 01:54:47;;;;;;;3.50;1.87;;;7.50;99.90;;;8.20;100.00;-20006.13;5030955;28;20231;-59
2022/04/08 01:57:17;;;;;;;4.63;1.87;;;7.50;99.90;;;8.13;100.00;-20003.56;5030357;28;20227;-59
2022/04/08 01:59:47;;;;;;;3.77;2.07;;;7.50;99.90;;;8.25;100.00;-20007.66;5030222;28;20299;-60
2022/04/08 02:02:17;;;;;;;1.87;1.77;;;7.50;99.90;;;8.18;100.00;-20005.28;5030503;28;20308;-58
2022/04/08 02:04:45;;;;;;;1.77;1.67;;;7.50;99.90;;;8.26;100.00;-20008.00;5030366;28;20236;-59
2022/04/08 02:07:13;;;;;;;2.27;1.57;;;7.50;99.90;;;8.25;100.00;-20007.66;5030360;28;20234;-60
2022/04/08 02:09:41;;;;;;;2.60;1.67;;;7.50;99.90;;;8.14;100.00;-20004.06;5031002;28;20204;-60
2022/04/08 02:12:10;;;;;;;2.27;1.57;;;7.40;99.90;;;8.13;100.00;-20003.72;5029794;28;20252;-59
2022/04/08 02:14:39;;;;;;;3.03;1.50;;;7.50;99.90;;;8.05;100.00;-20001.00;5030371;28;20230;-60
2022/04/08 02:17:08;;;;;;;3.67;1.43;;;7.40;99.90;;;8.11;100.00;-20002.88;5030252;28;20229;-58
2022/04/08 02:19:36;;;;;;;3.17;1.60;;;7.40;99.90;;;8.15;100.00;-20004.41;5030244;28;20224;-60
2022/04/08 02:22:05;;;;;;;4.03;1.50;;;7.40;99.90;;;8.09;100.00;-20002.19;5029933;28;20288;-60
2022/04/08 02:24:34;;;;;;;2.03;1.50;;;7.40;99.90;;;8.13;100.00;-20003.56;5030545;28;20198;-59
2022/04/08 02:27:03;;;;;;;2.37;1.70;;;7.40;99.90;;;8.01;100.00;-19999.63;5029900;28;20260;-59
2022/04/08 02:29:33;;;;;;;5.43;1.90;;;7.40;99.90;;;8.07;100.00;-20001.69;5030138;28;20286;-60
2022/04/08 02:32:01;;;;;;;2.07;1.60;;;7.40;99.90;;;8.15;100.00;-20004.41;5029845;28;20239;-59
2022/04/08 02:34:30;;;;;;;1.60;1.50;;;7.40;99.90;;;8.05;100.00;-20001.00;5030212;28;20256;-59
2022/04/08 02:36:58;;;;;;;2.13;1.70;;;7.40;99.90;;;8.01;100.00;-19999.47;5029923;28;20241;-59
2022/04/08 02:39:26;;;;;;;2.37;1.60;;;7.40;99.90;;;8.03;100.00;-20000.16;5030880;28;20202;-59
2022/04/08 02:41:54;;;;;;;3.00;1.70;;;7.30;99.90;;;8.19;100.00;-20005.59;5029921;28;20232;-59
2022/04/08 02:44:22;;;;;;;2.67;1.80;;;7.40;99.90;;;8.03;100.00;-20000.31;5030152;28;20288;-60
2022/04/08 02:46:50;;;;;;;2.23;1.80;;;7.30;99.90;;;8.02;100.00;-19999.81;5029903;28;20225;-58
2022/04/08 02:49:18;;;;;;;2.77;1.90;;;7.40;99.90;;;8.07;100.00;-20001.50;5030018;28;20259;-59
2022/04/08 02:51:47;;;;;;;2.50;1.80;;;7.30;99.90;;;8.16;100.00;-20004.75;5029999;28;20515;-59
2022/04/08 02:54:16;;;;;;;2.77;1.90;;;7.40;99.90;;;8.30;100.00;-20009.38;5029970;28;20312;-59
2022/04/08 02:56:44;;;;;;;2.67;1.90;;;7.50;99.90;;;8.28;100.00;-20008.88;5029484;28;20309;-59
2022/04/08 02:59:12;;;;;;;3.40;1.93;;;7.50;99.90;;;8.42;100.00;-20013.47;5032082;28;20313;-59
2022/04/08 03:01:40;;;;;;;3.20;2.10;;;7.50;99.90;;;8.35;100.00;-20011.09;5033687;28;20313;-60
2022/04/08 03:04:08;;;;;;;4.67;1.57;;;7.60;99.90;;;8.35;100.00;-20011.09;5033341;28;20202;-60
2022/04/08 03:06:36;;;;;;;2.37;2.10;;;7.60;99.90;;;8.32;100.00;-20010.06;5034069;28;20224;-60
2022/04/08 03:09:06;;;;;;;2.23;1.80;;;7.60;99.90;;;8.30;100.00;-20009.53;5033440;28;20237;-60
2022/04/08 03:11:35;;;;;;;2.20;1.80;;;7.50;99.90;;;8.46;100.00;-20015.00;5033263;28;20229;-59
2022/04/08 03:14:04;;;;;;;2.33;2.10;;;7.60;99.90;;;8.46;100.00;-20015.00;5033047;28;20241;-59
2022/04/08 03:16:33;;;;;;;3.13;2.10;;;7.60;99.90;;;8.20;100.00;-20005.97;5033186;28;20221;-60
2022/04/08 03:19:01;;;;;;;3.07;2.10;;;7.50;99.90;;;8.20;100.00;-20005.97;5033018;28;20649;-59
2022/04/08 03:21:30;;;;;;;2.17;2.00;;;7.50;99.90;;;8.21;100.00;-20006.47;5033752;28;20292;-58
2022/04/08 03:23:59;;;;;;;2.73;2.40;;;7.40;99.90;;;8.16;100.00;-20004.59;5033148;28;20272;-59
2022/04/08 03:26:28;;;;;;;4.20;2.40;;;7.40;99.90;;;8.14;100.00;-20004.06;5033122;28;20233;-60
2022/04/08 03:28:56;;;;;;;2.90;2.20;;;7.40;99.90;;;8.04;100.00;-20000.47;5033036;28;20228;-58
2022/04/08 03:31:24;;;;;;;2.43;2.20;;;7.40;99.90;;;8.05;100.00;-20000.84;5033000;28;20667;-59
2022/04/08 03:33:52;;;;;;;4.13;2.00;;;7.40;99.90;;;8.04;100.00;-20000.47;5033366;28;20225;-59
2022/04/08 03:36:20;;;;;;;3.70;2.70;;;7.30;99.90;;;8.01;100.00;-19999.47;5033171;28;20221;-60
2022/04/08 03:38:48;;;;;;;2.50;2.30;;;7.30;99.90;;;8.00;100.00;-19999.28;5032896;28;20605;-60
2022/04/08 03:41:16;;;;;;;2.90;2.03;;;7.20;99.90;;;8.01;100.00;-19999.63;5032935;28;20236;-60
2022/04/08 03:43:45;;;;;;;2.43;2.23;;;7.20;99.90;;;8.02;100.00;-19999.97;5032583;28;20259;-59
2022/04/08 03:46:14;;;;;;;5.17;2.67;;;7.20;99.90;;;8.05;100.00;-20001.00;5032808;28;20226;-59
2022/04/08 03:48:43;;;;;;;4.87;2.60;;;7.30;99.90;;;8.03;100.00;-20000.16;5033564;28;20251;-60
2022/04/08 03:51:11;;;;;;;2.30;2.07;;;7.30;99.90;;;8.07;100.00;-20001.50;5031983;28;20229;-61
2022/04/08 03:53:39;;;;;;;2.80;2.10;;;7.30;99.90;;;8.13;100.00;-20003.56;5012703;28;20310;-59
2022/04/08 03:56:07;;;;;;;3.20;2.50;;;7.40;99.90;;;8.18;100.00;-20005.28;5012783;28;20329;-60
2022/04/08 03:58:35;;;;;;;2.50;2.30;;;7.40;99.90;;;8.19;100.00;-20005.78;5012507;28;20329;-60
2022/04/08 04:01:04;;;;;;;3.77;2.53;;;7.40;99.90;;;8.23;100.00;-20006.97;5031654;28;20591;-60
2022/04/08 04:03:32;;;;;;;4.10;2.80;;;7.40;99.90;;;8.30;100.00;-20009.53;5032810;28;20255;-59
2022/04/08 04:06:01;;;;;;;2.70;2.40;;;7.40;99.90;;;8.29;100.00;-20009.22;5032766;28;20256;-60
2022/04/08 04:08:29;;;;;;;3.97;2.57;;;7.40;99.90;;;8.26;100.00;-20008.19;5032297;28;20313;-58
2022/04/08 04:10:57;;;;;;;4.43;2.50;;;7.50;99.90;;;8.34;100.00;-20010.75;5031428;28;20222;-60
2022/04/08 04:13:25;;;;;;;3.40;2.20;;;7.50;99.90;;;8.30;100.00;-20009.53;5031861;28;20240;-60
2022/04/08 04:15:53;;;;;;;3.60;2.30;;;7.50;99.90;;;8.38;100.00;-20012.09;5032443;28;20237;-57
2022/04/08 04:18:22;;;;;;;4.63;2.43;;;7.50;99.90;;;8.38;100.00;-20012.09;5032543;28;20209;-58
2022/04/08 04:20:50;;;;;;;2.63;2.40;;;7.50;99.90;;;8.46;100.00;-20015.00;5031851;28;20652;-59
2022/04/08 04:23:18;;;;;;;4.57;2.30;;;7.50;99.90;;;8.48;100.00;-20015.53;5032343;28;20317;-59
2022/04/08 04:25:46;;;;;;;3.23;2.07;;;7.60;99.90;;;8.53;100.00;-20017.41;5032126;28;20305;-59
2022/04/08 04:28:15;;;;;;;2.80;2.50;;;7.60;99.90;;;8.41;100.00;-20013.31;5031812;28;20221;-60
2022/04/08 04:30:43;;;;;;;3.57;2.30;;;7.60;99.90;;;8.42;100.00;-20013.47;5032552;28;20197;-61
2022/04/08 04:33:11;;;;;;;3.83;2.50;;;7.60;99.90;;;8.36;100.00;-20011.44;5031496;28;20228;-58
2022/04/08 04:35:40;;;;;;;4.67;2.60;;;7.60;99.90;;;8.37;100.00;-20011.78;5031714;28;20228;-59
2022/04/08 04:38:08;;;;;;;3.83;2.60;;;7.60;99.90;;;8.48;100.00;-20015.69;5031674;28;20787;-60
2022/04/08 04:40:36;;;;;;;3.50;2.40;;;7.60;99.90;;;8.36;100.00;-20011.59;5031959;28;20304;-59
2022/04/08 04:43:04;;;;;;;2.97;2.60;;;7.60;99.90;;;8.37;100.00;-20011.78;5032552;28;20565;-59
2022/04/08 04:45:34;;;;;;;2.63;2.20;;;7.60;99.90;;;8.53;100.00;-20017.22;5031988;28;20666;-59
2022/04/08 04:48:02;;;;;;;2.87;2.20;;;7.60;99.90;;;8.53;100.00;-20017.41;5031158;28;20222;-60
2022/04/08 04:50:30;;;;;;;5.30;2.40;;;7.70;99.90;;;8.54;100.00;-20017.75;5031092;28;20237;-59
2022/04/08 04:53:00;;;;;;;2.70;2.50;;;7.70;99.90;;;8.55;100.00;-20018.09;5030875;28;20790;-60
2022/04/08 04:55:28;;;;;;;3.37;2.00;;;7.70;99.90;;;8.50;99.96;-20016.22;5031194;28;20305;-59
2022/04/08 04:57:56;;;;;;;2.30;2.10;;;7.70;99.90;;;8.52;100.00;-20017.06;5031188;28;20295;-61
2022/04/08 05:00:24;;;;;;;3.63;2.20;;;7.70;99.90;;;8.58;99.40;-20019.13;5031827;28;20288;-59
2022/04/08 05:02:52;;;;;;;4.23;2.13;;;7.70;99.90;;;8.54;99.92;-20017.75;5030927;28;20226;-59
2022/04/08 05:05:20;;;;;;;3.20;1.97;;;7.70;99.90;;;8.66;99.51;-20021.69;5031246;28;20245;-60
2022/04/08 05:07:48;;;;;;;4.63;2.30;;;7.70;99.90;;;8.59;100.00;-20019.47;5031043;28;20228;-60
2022/04/08 05:10:18;;;;;;;2.33;1.90;;;7.70;99.90;;;8.66;99.46;-20021.69;5031212;28;20313;-60
2022/04/08 05:12:47;;;;;;;3.17;1.90;;;7.70;99.90;;;8.72;99.44;-20023.56;5031427;28;20744;-60
2022/04/08 05:15:15;;;;;;;6.90;2.50;;;7.70;99.90;;;8.67;99.04;-20022.03;5030798;28;20257;-60
2022/04/08 05:17:44;;;;;;;2.30;2.03;;;7.80;99.90;;;8.73;98.65;-20023.91;5030990;28;20240;-59
2022/04/08 05:20:12;;;;;;;2.90;2.17;;;7.80;99.90;;;8.77;98.47;-20025.25;5030869;28;20229;-61
2022/04/08 05:22:41;;;;;;;5.40;2.30;;;7.80;99.90;;;8.66;98.04;-20021.50;5030661;28;20606;-60
2022/04/08 05:25:10;;;;;;;2.10;1.90;;;7.80;99.90;;;8.65;98.24;-20021.34;5030700;28;20268;-59
2022/04/08 05:27:42;;;;;;;3.53;2.00;;;7.80;99.90;;;8.78;97.13;-20025.78;5031099;28;20198;-62
2022/04/08 05:30:13;;;;;;;2.47;2.00;;;7.80;99.90;;;8.76;97.76;-20025.09;5030887;28;20309;-61
2022/04/08 05:32:41;;;;;;;2.63;2.40;;;7.80;99.90;;;8.77;96.90;-20025.25;5030497;28;20225;-60
2022/04/08 05:35:10;;;;;;;2.40;1.90;;;7.80;99.90;;;8.82;97.03;-20026.97;5030083;28;20241;-60
2022/04/08 05:37:42;;;;;;;2.33;2.10;;;7.90;99.90;;;8.86;96.67;-20028.34;5030539;28;20225;-59
2022/04/08 05:40:14;;;;;;;4.07;2.47;;;7.90;99.90;;;8.81;96.74;-20026.81;5030315;28;20192;-60
2022/04/08 05:42:44;;;;;;;7.07;2.30;;;7.90;99.90;;;8.87;96.53;-20028.84;5030982;28;20277;-60
2022/04/08 05:45:13;;;;;;;2.97;2.13;;;7.90;99.90;;;8.94;97.25;-20031.06;5030112;28;20229;-59
2022/04/08 05:47:41;;;;;;;3.53;2.30;;;7.90;99.90;;;9.05;96.22;-20035.00;5030348;28;20240;-59
2022/04/08 05:50:11;;;;;;;3.40;2.57;;;8.00;99.90;;;9.03;95.76;-20034.31;5030098;28;20230;-60
2022/04/08 05:52:39;;;;;;;3.73;2.33;;;8.10;99.90;;;9.12;95.26;-20037.41;5030176;28;20225;-60
2022/04/08 05:55:08;;;;;;;3.27;2.20;;;8.10;99.90;;;9.08;95.65;-20035.84;5030051;28;20241;-60
2022/04/08 05:57:40;;;;;;;3.70;2.30;;;8.10;99.90;;;9.04;95.50;-20034.66;5031043;28;20569;-60
2022/04/08 06:00:13;;;;;;;2.37;2.03;;;8.20;99.90;;;9.12;95.73;-20037.22;5030341;28;20233;-60
2022/04/08 06:02:45;;;;;;;2.37;2.00;;;8.20;99.90;;;9.02;95.64;-20033.97;5030373;28;20244;-59
2022/04/08 06:05:15;;;;;;;2.70;2.13;;;8.10;99.90;;;9.16;94.34;-20038.59;5029986;28;20236;-60
2022/04/08 06:07:47;;;;;;;2.27;2.00;;;8.20;99.90;;;9.22;95.01;-20040.81;5030441;28;20221;-59
2022/04/08 06:10:18;;;;;;;2.77;2.00;;;8.20;99.90;;;9.26;95.34;-20042.19;5030319;28;20226;-59
2022/04/08 06:12:47;;;;;;;2.60;2.07;;;8.20;99.90;;;9.34;94.56;-20044.91;5030312;28;20209;-60
2022/04/08 06:15:18;;;;;;;2.93;2.23;;;8.30;99.90;;;9.37;94.95;-20045.78;5025646;28;20306;-60
2022/04/08 06:17:47;;;;;;;3.03;2.20;;;8.30;99.90;;;9.28;95.49;-20042.88;5010762;28;20231;-61
2022/04/08 06:20:17;;;;;;;2.77;1.97;;;8.20;99.90;;;9.48;93.14;-20049.69;5010078;28;20665;-59
2022/04/08 06:22:47;;;;;;;1.70;1.60;;;8.40;99.90;;;9.54;91.67;-20051.75;5010726;28;20222;-60
2022/04/08 06:25:20;;;;;;;3.77;1.70;;;8.40;99.90;;;9.57;90.82;-20052.78;5010322;28;20758;-60
2022/04/08 06:27:57;;;;;;;2.23;1.30;;;8.50;99.90;;;9.58;90.14;-20052.94;5010673;28;20686;-60
2022/04/08 06:30:26;;;;;;;2.27;1.30;;;8.50;99.90;;;9.60;88.74;-20053.78;5010803;28;20206;-61
2022/04/08 06:32:55;;;;;;;3.73;1.33;;;8.50;99.90;;;9.63;86.93;-20054.66;5018176;28;20214;-60
2022/04/08 06:35:23;;;;;;;1.67;1.30;;;8.50;99.90;;;9.42;88.44;-20047.66;5033548;28;20243;-60
2022/04/08 06:37:51;;;;;;;1.87;1.10;;;8.50;99.90;;;9.27;86.97;-20042.34;5033741;28;20696;-60
2022/04/08 06:40:19;;;;;;;1.30;1.10;;;8.40;99.90;;;9.49;85.51;-20049.88;5033280;28;20743;-61
2022/04/08 06:42:47;;;;;;;4.07;1.27;;;8.50;99.90;;;9.26;85.68;-20042.19;5034373;28;20217;-62
2022/04/08 06:45:14;;;;;;;2.17;1.13;;;8.40;99.90;;;9.54;85.45;-20051.56;5033479;28;20222;-60
2022/04/08 06:47:48;;;;;;;2.13;1.00;;;8.50;99.90;;;9.74;82.04;-20058.56;5033576;28;20743;-60
2022/04/08 06:50:17;;;;;;;1.70;0.80;;;8.60;99.90;;;9.92;81.44;-20064.56;5033369;28;20317;-62
2022/04/08 06:52:45;;;;;;;1.00;0.87;;;8.70;99.90;;;9.87;81.40;-20062.84;5033623;28;20229;-59
2022/04/08 06:55:14;;;;;;;2.87;1.17;;;8.80;99.90;;;9.89;81.20;-20063.69;5033371;28;20288;-61
2022/04/08 06:57:43;;;;;;;2.37;0.80;;;8.80;99.90;;;9.67;81.28;-20056.00;5034006;28;20202;-60
2022/04/08 07:00:14;;;;;;;0.93;0.87;;;8.80;99.90;;;9.71;79.91;-20057.56;5033505;28;20226;-60
2022/04/08 07:02:41;;;;;;;1.33;0.70;;;8.70;99.90;;;10.04;76.29;-20068.47;5033596;28;20502;-60
2022/04/08 07:05:11;;;;;;;2.13;0.80;;;8.90;99.90;;;10.09;77.86;-20070.38;5033156;28;20280;-60
2022/04/08 07:07:39;;;;;;;1.47;0.73;;;9.00;99.90;;;10.22;77.81;-20074.63;5033535;28;20327;-61
2022/04/08 07:10:09;;;;;;;3.07;0.90;;;9.10;99.90;;;10.23;77.63;-20075.16;5033579;28;20206;-60
2022/04/08 07:12:37;;;;;;;1.33;0.80;;;9.20;99.90;;;10.22;74.96;-20074.63;5033708;28;20221;-60
2022/04/08 07:15:07;;;;;;;1.33;0.83;;;9.10;99.90;;;10.53;74.32;-20085.41;5033143;28;20226;-60
2022/04/08 07:17:37;;;;;;;2.03;0.97;;;9.30;99.90;;;10.61;74.46;-20088.13;5033194;28;20604;-60
2022/04/08 07:20:17;;;;;;;2.23;1.00;;;9.40;99.90;;;10.32;75.82;-20078.06;5032906;28;20230;-59
2022/04/08 07:22:47;;;;;;;1.57;1.10;;;9.30;99.90;;;10.34;76.38;-20078.91;5033380;28;20655;-60
2022/04/08 07:25:16;;;;;;;1.83;1.30;;;9.20;99.90;;;10.24;76.42;-20075.31;5033063;28;20649;-58
2022/04/08 07:27:46;;;;;;;1.40;1.30;;;9.20;99.90;;;10.42;76.21;-20081.47;5033534;28;20224;-60
2022/04/08 07:30:18;;;;;;;1.63;1.20;;;9.30;99.90;;;10.39;75.67;-20080.44;5032830;28;20230;-58
2022/04/08 07:32:48;;;;;;;1.17;1.03;;;9.30;99.90;;;10.43;76.88;-20082.00;5032949;28;20224;-59
2022/04/08 07:35:17;;;;;;;1.33;1.13;;;9.20;99.90;;;10.32;74.74;-20078.06;5032666;28;20635;-59
2022/04/08 07:37:45;;;;;;;1.27;1.13;;;9.20;99.90;;;10.60;75.85;-20087.63;5032508;28;20728;-59
2022/04/08 07:40:15;;;;;;;2.07;1.30;;;9.30;99.90;;;10.66;74.30;-20089.66;5032843;28;20221;-59
2022/04/08 07:42:43;;;;;;;2.50;1.00;;;9.40;99.90;;;10.46;73.48;-20082.84;5033180;28;20275;-59
2022/04/08 07:45:11;;;;;;;1.20;1.10;;;9.30;99.90;;;10.63;67.54;-20088.81;5032728;28;20236;-59
2022/04/08 07:47:39;;;;;;;2.33;1.10;;;9.40;99.90;;;10.58;65.80;-20086.94;5032540;28;20626;-60
2022/04/08 07:50:10;;;;;;;1.77;0.90;;;9.40;99.90;;;10.59;64.54;-20087.28;5032354;28;20226;-59
2022/04/08 07:52:42;;;;;;;1.83;1.17;;;9.50;99.90;;;10.80;65.65;-20094.44;5032530;28;20303;-58
2022/04/08 07:55:12;;;;;;;1.00;0.80;;;9.60;99.90;;;11.14;62.65;-20106.06;5032481;28;20563;-59
2022/04/08 07:57:47;;;;;;;1.27;0.90;;;9.80;99.90;;;11.02;63.37;-20101.97;5032589;28;20638;-61
2022/04/08 08:00:19;;;;;;;1.10;0.80;;;9.70;99.90;;;10.97;60.68;-20100.25;5032596;28;20225;-60
2022/04/08 08:02:48;;;;;;;1.53;0.90;;;9.80;99.90;;;10.89;60.81;-20097.69;5030743;28;20226;-58
2022/04/08 08:05:18;;;;;;;1.77;0.97;;;9.80;99.90;;;11.07;59.40;-20103.69;5032213;28;20296;-62
2022/04/08 08:07:51;;;;;;;1.53;0.80;;;9.80;99.90;;;11.32;58.29;-20112.22;5032171;28;20233;-59
2022/04/08 08:10:22;;;;;;;1.73;0.70;;;9.90;99.90;;;11.16;58.40;-20106.56;5032399;28;20656;-66
2022/04/08 08:12:51;;;;;;;1.20;1.00;;;9.80;99.90;;;11.03;58.90;-20102.31;5032624;28;20206;-64
2022/04/08 08:15:20;;;;;;;1.63;0.90;;;9.80;99.90;;;11.08;58.18;-20104.00;5032821;28;20229;-61
2022/04/08 08:17:49;;;;;;;1.17;0.70;;;9.80;99.90;;;11.19;59.22;-20107.78;5032169;28;20230;-62
2022/04/08 08:20:20;;;;;;;2.00;1.10;;;9.90;99.90;;;10.88;59.91;-20097.19;5031916;28;20702;-63
2022/04/08 08:22:51;;;;;;;1.73;0.80;;;9.80;99.90;;;10.85;60.80;-20096.16;5031904;28;20222;-62
2022/04/08 08:25:21;;;;;;;0.93;0.80;;;9.80;99.90;;;10.60;60.64;-20087.63;5032001;28;20240;-61
2022/04/08 08:27:53;;;;;;;2.80;0.80;;;9.70;99.90;;;10.65;61.39;-20089.31;5031933;28;20662;-62
2022/04/08 08:30:21;;;;;;;1.77;0.90;;;9.70;99.90;;;10.80;61.77;-20094.63;5032272;28;20396;-61
2022/04/08 08:32:51;;;;;;;1.80;1.30;;;9.70;99.90;;;10.69;60.92;-20090.88;5034576;28;20694;-63
2022/04/08 08:35:20;;;;;;;1.60;1.00;;;9.70;99.90;;;10.79;61.38;-20094.13;5031654;28;20767;-62
2022/04/08 08:37:50;;;;;;;1.93;1.20;;;9.70;99.90;;;10.97;60.77;-20100.25;5031768;28;20230;-61
2022/04/08 08:40:19;;;;;;;2.20;1.17;;;9.80;99.90;;;10.97;59.98;-20100.44;5031803;28;20218;-63
2022/04/08 08:42:48;;;;;;;1.23;0.90;;;9.90;99.90;;;11.21;57.22;-20108.28;5031538;28;20573;-61
2022/04/08 08:45:18;;;;;;;2.17;1.20;;;10.00;99.90;;;11.03;58.80;-20102.47;5031438;28;20257;-57
2022/04/08 08:47:52;;;;;;;2.63;1.20;;;9.90;99.90;;;11.00;57.60;-20101.28;5031085;28;20720;-58
2022/04/08 08:50:20;;;;;;;2.43;1.23;;;9.90;99.90;;;10.85;58.70;-20096.16;5031081;28;20709;-60
2022/04/08 08:52:52;;;;;;;2.50;0.90;;;9.90;99.90;;;10.75;57.73;-20092.91;5031132;28;20272;-57
2022/04/08 08:55:20;;;;;;;1.90;0.93;;;9.70;99.90;;;10.85;58.23;-20096.34;5031207;28;20704;-58
2022/04/08 08:57:50;;;;;;;2.93;1.17;;;9.70;99.90;;;11.33;58.30;-20112.56;5030993;28;20205;-57
2022/04/08 09:00:20;;;;;;;4.20;1.00;;;9.90;99.90;;;11.38;57.47;-20114.25;5031433;28;20700;-60
2022/04/08 09:02:49;;;;;;;4.20;1.23;;;10.10;99.90;;;11.27;57.69;-20110.34;5031200;28;20234;-60
2022/04/08 09:05:20;;;;;;;1.80;1.00;;;10.10;99.90;;;10.96;57.54;-20100.09;5030878;28;20233;-63
2022/04/08 09:07:57;;;;;;;2.57;1.10;;;9.90;99.90;;;11.03;59.11;-20102.47;5031411;28;20304;-60
2022/04/08 09:10:28;;;;;;;3.23;1.17;;;9.90;99.90;;;11.24;56.70;-20109.47;5031293;28;20232;-63
2022/04/08 09:12:58;;;;;;;1.53;1.00;;;10.00;99.90;;;11.44;56.42;-20116.31;5030387;28;20210;-61
2022/04/08 09:15:26;;;;;;;1.43;0.83;;;10.20;99.90;;;11.70;55.99;-20125.03;5031100;28;20650;-59
2022/04/08 09:17:55;;;;;;;2.00;1.03;;;10.30;99.90;;;11.95;55.11;-20133.56;5028820;28;20252;-60
2022/04/08 09:20:23;;;;;;;1.90;1.20;;;10.50;99.90;;;12.24;52.88;-20143.63;5011020;28;20609;-61
2022/04/08 09:22:57;;;;;;;2.40;1.03;;;10.80;99.90;;;12.17;52.34;-20141.25;5011032;28;20230;-60
2022/04/08 09:25:27;;;;;;;1.93;1.30;;;10.90;99.90;;;12.07;53.53;-20137.84;5011287;28;20223;-56
2022/04/08 09:27:58;;;;;;;1.80;1.20;;;10.80;99.90;;;11.86;54.09;-20130.66;5010521;28;20202;-55
2022/04/08 09:30:26;;;;;;;1.63;0.90;;;10.70;99.90;;;11.91;55.00;-20132.38;5025746;28;20220;-57
2022/04/08 09:32:54;;;;;;;3.77;1.50;;;10.60;99.90;;;12.02;54.23;-20135.97;5028011;28;20221;-55
2022/04/08 09:35:24;;;;;;;2.17;0.97;;;10.70;99.90;;;12.22;53.73;-20142.97;5010590;28;20238;-60
2022/04/08 09:38:03;;;;;;;2.37;1.23;;;10.80;99.90;;;12.42;53.91;-20149.44;5024152;28;20221;-61
2022/04/08 09:40:42;;;;;;;2.40;1.20;;;11.00;99.90;;;12.21;51.03;-20142.63;5030526;28;20240;-58
2022/04/08 09:43:10;;;;;;;3.10;1.20;;;11.00;99.90;;;11.86;51.49;-20130.66;5030146;28;20221;-62
2022/04/08 09:45:39;;;;;;;2.33;1.00;;;10.80;99.90;;;11.62;52.96;-20122.28;5030789;28;20198;-59
2022/04/08 09:48:09;;;;;;;2.17;1.17;;;10.60;99.90;;;11.72;53.82;-20125.72;5030047;28;20234;-60
2022/04/08 09:50:40;;;;;;;1.63;1.20;;;10.50;99.90;;;11.99;53.94;-20135.09;5029821;28;20715;-62
2022/04/08 09:53:12;;;;;;;2.80;1.37;;;10.60;99.90;;;12.09;53.16;-20138.34;5029898;28;20240;-60
2022/04/08 09:55:44;;;;;;;3.13;1.63;;;10.60;99.90;;;12.15;53.00;-20140.41;5030100;28;20615;-59
2022/04/08 09:58:14;;;;;;;2.13;1.00;;;10.80;99.90;;;12.13;50.91;-20139.88;5030083;28;20197;-62
2022/04/08 10:00:46;;;;;;;2.37;1.40;;;10.80;99.90;;;12.05;50.84;-20137.16;5030650;28;20182;-59
2022/04/08 10:03:14;;;;;;;4.57;1.30;;;10.80;99.90;;;12.42;51.05;-20149.44;5029863;28;20226;-59
2022/04/08 10:05:42;;;;;;;3.13;1.20;;;10.80;99.90;;;12.48;50.86;-20151.66;5029701;28;20229;-60
2022/04/08 10:08:12;;;;;;;3.10;1.40;;;10.90;99.90;;;12.49;50.52;-20152.00;5030078;28;20313;-61
2022/04/08 10:10:49;;;;;;;2.93;1.10;;;10.90;99.90;;;12.57;49.00;-20154.72;5033969;28;20232;-60
2022/04/08 10:13:36;;;;;;;3.00;1.20;;;11.20;99.90;;;12.36;49.68;-20147.41;5033604;28;20225;-60
2022/04/08 10:16:15;;;;;;;3.07;1.23;;;11.10;99.90;;;12.58;48.19;-20155.06;5034103;28;20220;-59
2022/04/08 10:18:46;;;;;;;4.30;1.40;;;11.00;99.90;;;12.79;49.06;-20162.25;5034881;28;20244;-60
2022/04/08 10:21:15;;;;;;;3.17;1.60;;;11.30;99.90;;;12.67;47.88;-20158.16;5034546;28;20299;-60
2022/04/08 10:23:50;;;;;;;1.73;1.00;;;11.30;99.90;;;12.56;48.34;-20154.22;5034360;28;20724;-61
2022/04/08 10:26:21;;;;;;;3.77;1.23;;;11.10;99.90;;;12.73;47.62;-20160.03;5033888;28;20229;-60
2022/04/08 10:28:51;;;;;;;4.10;1.40;;;11.20;99.90;;;12.55;47.74;-20153.88;5033695;28;20309;-59